Date,TemperatureHighF,TemperatureAvgF,TemperatureLowF,DewpointHighF,DewpointAvgF,DewpointLowF,HumidityHigh,HumidityAvg,HumidityLow,PressureMaxIn,PressureMinIn,WindSpeedMaxMPH,WindSpeedAvgMPH,GustSpeedMaxMPH,PrecipitationSumIn
2013-1-7,59.4,50.7,37.2,27.1,23.4,21.0,52,35,25,29.96,29.83,10,1,11,0.00
2013-1-13,40.3,27.6,14.5,12.6,9.2,5.7,68,47,31,30.05,29.92,11,0,11,0.00
2013-1-14,39.6,26.9,16.5,14.4,9.8,3.7,69,50,34,30.21,29.92,12,1,12,0.00
2013-1-15,48.5,28.7,15.2,13.3,7.8,3.0,59,43,23,30.32,30.19,7,0,7,0.00
2013-1-16,59.5,38.6,24.3,24.3,18.4,12.0,61,46,25,30.37,30.18,10,0,10,0.00
2013-1-17,63.4,42.8,27.1,25.6,21.8,18.3,70,46,22,30.34,30.18,9,0,9,0.00
2013-1-18,62.9,43.2,30.9,25.1,22.4,19.4,63,46,21,30.31,30.15,7,0,8,0.00
2013-1-19,68.1,46.2,31.6,27.2,23.3,18.5,65,44,19,30.32,30.15,8,0,8,0.00
2013-1-20,65.4,43.9,29.8,21.5,18.0,14.4,61,39,14,30.27,30.09,8,0,8,0.00
2013-1-21,69.6,48.0,32.0,23.8,17.0,12.7,54,33,11,30.22,30.10,9,0,9,0.00
2013-1-22,69.8,47.1,31.7,19.6,16.7,13.1,50,32,11,30.26,30.15,10,0,10,0.00
2013-1-23,64.8,47.9,32.2,27.6,21.9,17.5,54,37,18,30.31,30.18,5,0,5,0.00
2013-1-24,56.9,49.2,44.0,47.5,37.1,27.2,92,65,43,30.26,30.18,15,0,16,0.00
2013-1-25,63.9,52.7,45.1,52.3,47.8,44.5,100,85,56,30.24,30.05,6,0,6,0.27
2013-1-26,53.3,51.7,50.0,53.3,51.4,49.6,100,99,94,30.04,29.83,16,1,16,1.10
2013-1-27,58.2,52.1,48.4,53.8,49.4,43.6,100,91,71,29.98,29.86,17,1,17,0.10
2013-1-28,50.7,44.2,33.2,44.6,34.9,28.1,97,71,43,29.97,29.77,27,4,27,0.01
2013-1-29,51.9,37.5,26.6,32.1,27.2,23.6,98,69,39,30.17,29.94,16,2,17,0.00
2013-1-30,54.4,40.4,28.2,31.9,28.9,24.1,86,65,40,30.30,30.16,9,1,10,0.00
2013-1-31,66.0,44.3,29.1,37.3,31.3,28.0,98,66,24,30.27,30.11,8,0,8,0.00
2013-2-1,65.2,46.7,32.5,35.6,32.1,29.2,88,60,28,30.27,30.15,8,0,8,0.00
2013-2-2,70.5,51.5,36.2,33.9,30.4,19.4,77,49,15,30.32,30.15,6,0,6,0.00
2013-2-3,60.1,51.6,45.2,45.0,38.1,32.6,86,61,46,30.21,30.00,9,0,9,0.00
2013-2-4,65.8,45.3,34.8,39.5,35.7,29.7,95,72,31,30.09,30.00,8,0,8,0.00
2013-2-5,69.8,50.9,35.7,35.6,31.5,25.6,80,52,19,30.05,29.90,17,1,17,0.00
2013-2-6,62.1,48.9,37.6,41.5,37.5,33.2,87,66,45,30.02,29.88,11,0,11,0.00
2013-2-7,64.5,50.2,36.8,41.2,36.0,31.9,87,61,30,30.11,29.91,14,1,15,0.00
2013-2-8,56.9,47.4,36.9,40.2,31.7,18.1,91,57,32,29.92,29.69,34,6,37,0.00
2013-2-9,41.7,37.6,32.8,36.7,31.9,24.7,99,81,55,29.95,29.67,17,2,37,0.04
2013-2-10,44.6,34.1,27.1,34.8,31.4,26.8,100,91,62,29.97,29.84,18,1,37,0.01
2013-2-11,47.1,34.8,27.7,32.9,29.6,25.5,100,83,50,30.12,29.92,13,1,37,0.06
2013-2-12,51.7,35.7,22.5,27.2,24.2,20.2,96,68,32,30.24,30.12,10,0,37,2.64
2013-2-13,62.1,42.0,26.1,28.4,25.1,21.3,82,55,26,30.19,30.08,8,1,37,2.64
2013-2-14,64.3,45.8,30.6,31.5,27.8,24.8,81,53,26,30.21,30.08,12,0,37,2.64
2013-2-15,68.0,49.1,36.1,29.4,22.5,14.4,64,40,13,30.35,30.20,11,1,37,2.64
2013-2-16,73.5,49.6,32.0,22.8,18.8,13.2,56,34,10,30.36,30.05,7,0,37,0.01
2013-2-17,44.2,44.2,44.2,22.0,22.0,22.0,41,41,41,30.04,30.04,0,0,0,0.12
2013-2-18,44.2,44.2,44.2,22.0,22.0,22.0,41,41,41,30.04,30.04,0,0,0,0.12
2013-2-20,40.2,37.1,33.8,38.0,35.3,32.6,99,93,82,29.85,29.54,17,2,17,0.05
2013-2-21,42.9,36.3,32.5,37.1,34.8,32.4,100,94,73,29.99,29.84,15,0,17,0.01
2013-2-22,54.2,38.9,26.4,35.0,28.6,23.2,100,72,30,30.10,29.97,16,1,17,0.48
2013-2-23,57.9,40.5,25.6,32.6,27.3,22.2,88,63,33,30.09,29.72,28,3,28,0.38
2013-2-24,49.6,44.9,37.0,16.8,15.2,12.7,43,30,24,30.07,29.89,24,7,26,0.04
2013-2-25,59.5,42.0,26.0,22.6,18.9,15.2,64,42,20,30.15,29.96,14,1,14,0.00
2013-2-26,57.0,42.1,27.6,23.9,16.5,9.0,69,41,15,30.12,29.92,23,3,24,0.00
2013-2-27,48.0,39.0,30.7,13.6,11.8,9.7,42,33,24,30.26,30.12,10,0,19,0.00
2013-2-28,65.0,46.8,30.5,16.1,12.9,10.7,46,28,12,30.36,30.24,12,1,12,0.00
2013-3-1,73.3,50.8,32.9,27.8,21.5,14.2,54,34,17,30.39,30.23,11,0,11,0.00
2013-3-3,67.2,60.8,52.3,35.4,31.3,27.7,44,33,23,30.04,29.92,16,2,16,0.00
2013-3-4,71.5,57.7,46.3,34.4,31.5,28.6,55,38,22,30.11,29.86,16,1,18,0.01
2013-3-5,71.0,54.2,40.7,35.9,31.6,24.6,69,46,18,30.20,30.02,17,1,18,0.24
2013-3-6,71.8,54.9,37.1,36.8,32.0,29.4,74,45,22,30.05,29.89,21,3,21,0.24
2013-3-7,69.8,53.4,36.2,36.0,30.1,23.1,74,45,18,29.95,29.84,25,2,25,0.24
2013-3-8,55.1,43.8,36.8,46.3,39.4,31.5,100,87,42,29.89,29.67,24,2,25,0.97
2013-3-9,44.7,39.3,35.5,40.3,38.2,35.3,100,96,81,30.08,29.86,14,1,25,0.05
2013-3-10,63.6,46.5,31.4,44.3,35.9,31.3,100,72,34,30.19,30.07,13,1,25,0.01
2013-3-11,69.5,51.3,33.7,38.2,33.0,29.6,86,54,25,30.19,30.02,9,0,13,10.40
2013-3-12,78.0,56.6,39.4,38.8,33.8,28.9,75,48,18,30.19,30.05,9,0,9,0.00
2013-3-13,51.4,50.1,48.0,35.8,35.3,34.8,60,57,54,30.20,30.18,3,0,9,0.00
2013-3-16,80.5,69.2,53.6,39.7,36.0,24.5,56,32,13,29.96,29.77,26,2,33,0.00
2013-3-17,80.0,60.5,44.4,41.1,26.7,4.7,76,38,6,29.92,29.80,22,2,22,0.00
2013-3-18,51.4,48.1,46.2,21.5,19.6,17.7,36,32,27,29.94,29.92,8,0,22,0.00
2013-3-22,73.6,62.5,42.5,33.7,26.2,13.0,43,27,12,29.79,29.67,20,3,24,0.00
2013-3-24,72.2,66.9,58.3,18.1,16.0,13.5,18,14,12,29.93,29.86,24,6,24,0.92
2013-3-25,76.7,58.3,39.7,25.5,19.3,14.7,40,24,12,30.06,29.92,16,1,16,0.00
2013-3-26,75.3,58.5,41.8,30.0,25.7,21.8,54,31,14,30.01,29.86,23,2,24,0.00
2013-3-27,75.8,59.4,43.3,31.4,26.3,20.9,52,31,14,30.01,29.90,20,2,20,0.00
2013-3-28,76.6,59.1,42.1,33.0,29.0,26.0,57,35,16,30.10,29.99,20,2,23,0.00
2013-3-29,81.1,64.2,46.7,34.9,29.7,23.9,56,31,12,30.16,30.03,15,1,15,0.00
2013-3-30,77.5,61.9,50.9,34.0,31.6,28.7,47,34,18,30.14,30.00,18,1,18,0.00
2013-3-31,81.3,69.7,46.3,37.8,32.6,24.9,62,27,14,30.08,29.93,27,4,27,0.00
2013-4-1,75.5,62.1,45.7,40.0,30.7,22.5,66,34,15,30.00,29.88,23,3,27,0.00
2013-4-2,75.3,59.4,41.1,33.5,28.8,24.6,56,34,16,30.00,29.86,19,2,22,0.00
2013-4-3,79.8,62.5,45.9,36.8,31.2,24.2,60,35,13,30.11,29.99,11,1,22,0.00
2013-4-4,81.3,64.3,47.5,31.3,28.1,24.4,47,28,12,30.16,29.99,18,1,18,0.00
2013-4-5,80.5,66.5,50.8,35.0,31.7,21.2,47,29,12,30.02,29.87,27,3,28,0.00
2013-4-6,81.3,64.3,47.3,36.7,32.9,29.2,58,34,17,30.02,29.86,22,1,23,0.00
2013-4-7,80.5,64.0,46.7,37.2,33.2,27.7,58,35,15,29.94,29.74,21,2,21,0.00
2013-4-8,65.2,57.8,49.2,44.1,36.7,26.9,58,46,31,29.75,29.40,43,8,43,0.00
2013-4-9,61.2,52.0,46.1,37.2,31.8,25.0,70,48,29,29.90,29.50,24,6,24,0.00
2013-4-10,69.5,54.1,39.8,31.1,25.4,17.8,61,36,15,30.03,29.89,18,1,18,0.00
2013-4-11,77.5,58.0,38.8,30.5,27.5,23.8,56,33,16,30.00,29.78,18,1,24,0.00
2013-4-12,81.3,63.5,43.9,30.8,26.1,19.2,52,28,10,29.89,29.75,20,1,20,0.00
2013-4-13,82.0,66.8,46.9,33.7,28.1,23.7,51,26,12,29.90,29.71,23,2,24,0.00
2013-4-14,78.0,67.3,53.5,36.4,32.7,29.7,43,29,19,29.77,29.67,28,5,28,0.00
2013-4-15,73.5,64.8,54.2,40.4,37.8,34.2,50,37,29,29.76,29.68,26,5,31,0.00
2013-4-16,69.5,60.3,49.4,42.9,33.8,18.4,62,39,17,29.79,29.66,31,6,38,0.00
2013-4-17,62.1,52.3,42.7,32.2,22.7,13.6,59,34,16,30.08,29.78,24,4,24,0.00
2013-4-18,67.5,51.9,34.9,19.7,14.7,10.3,48,25,11,30.22,30.07,21,1,21,0.00
2013-4-19,77.8,57.8,35.3,18.6,13.4,7.6,41,20,7,30.24,29.95,15,1,16,0.00
2013-4-20,81.5,63.9,42.5,25.5,16.9,6.6,43,20,6,30.05,29.90,22,2,22,0.00
2013-4-21,85.8,66.7,45.7,26.0,19.8,12.0,40,20,7,30.12,29.95,19,2,20,0.00
2013-4-22,86.4,69.6,49.0,30.2,23.3,17.7,39,20,8,30.03,29.82,27,3,27,0.00
2013-4-23,80.3,67.3,51.5,32.0,17.4,1.4,40,18,6,29.97,29.83,24,3,24,0.00
2013-4-24,82.0,64.6,45.4,28.3,18.9,11.8,31,18,10,30.00,29.89,23,2,23,0.00
2013-4-25,76.7,64.4,47.4,37.2,30.4,17.8,48,30,12,30.10,29.91,23,3,25,0.00
2013-4-26,83.8,66.2,47.1,39.1,31.8,19.9,60,33,10,30.19,30.08,14,1,17,0.00
2013-4-27,88.8,70.0,48.6,31.7,20.5,8.4,47,20,6,30.19,30.00,14,1,14,0.00
2013-4-28,91.0,72.7,51.7,22.0,17.4,13.2,27,14,6,30.06,29.84,12,1,13,0.00
2013-4-29,93.3,74.9,54.7,29.8,21.5,13.9,33,16,6,29.90,29.71,23,2,23,0.00
2013-4-30,90.4,76.1,57.7,31.9,20.9,12.6,34,15,6,29.85,29.75,26,3,31,0.00
2013-5-1,88.5,73.0,53.0,32.2,18.4,0.7,36,15,6,30.20,29.84,18,2,19,0.00
2013-5-2,79.3,65.5,53.7,18.9,11.4,4.4,22,13,6,30.36,30.20,21,4,24,0.00
2013-5-3,84.8,66.9,46.4,23.7,16.6,8.7,32,16,7,30.23,29.88,14,1,19,0.00
2013-5-4,85.8,68.3,47.4,28.6,20.1,10.5,42,19,6,29.91,29.75,20,2,20,0.00
2013-5-5,79.8,70.3,62.5,39.3,25.5,19.3,39,19,12,29.95,29.82,23,3,23,0.00
2013-5-6,75.3,65.7,58.2,43.8,39.6,30.7,51,39,29,30.01,29.91,22,3,24,0.00
2013-5-7,74.6,62.6,51.0,46.8,40.5,32.4,65,46,22,30.02,29.88,28,5,28,0.00
2013-5-8,73.7,60.7,43.8,42.1,37.4,33.4,80,46,24,30.08,29.97,17,1,18,0.00
2013-5-9,77.3,63.6,49.0,40.9,37.2,32.3,57,39,21,30.08,29.96,21,2,26,0.00
2013-5-10,85.8,68.1,50.1,43.2,36.7,26.6,67,37,12,30.18,30.00,22,1,23,0.00
2013-5-11,86.5,71.3,55.4,44.3,35.3,26.7,53,30,12,30.22,30.11,16,1,16,0.00
2013-5-12,91.3,74.2,54.8,37.0,30.4,21.1,46,23,8,30.24,30.05,14,0,16,0.00
2013-5-13,95.0,77.4,55.9,36.4,28.7,19.4,39,20,7,30.18,29.99,16,1,16,0.00
2013-5-14,93.8,77.2,59.7,38.8,32.2,25.1,43,22,9,30.07,29.89,20,1,20,0.00
2013-5-15,90.8,77.1,59.0,40.1,25.9,12.0,43,18,6,30.02,29.91,23,3,23,0.00
2013-5-16,90.1,73.8,53.0,35.3,22.6,15.5,33,17,7,29.99,29.84,27,3,27,0.00
2013-5-17,82.7,73.0,58.7,34.4,28.5,23.6,36,20,13,29.94,29.86,24,3,25,0.00
2013-5-18,83.5,71.4,53.3,38.9,33.8,26.6,47,27,13,29.98,29.85,25,3,25,0.00
2013-5-19,87.2,72.8,53.5,39.6,31.0,22.3,51,25,10,29.97,29.80,33,3,33,0.00
2013-5-20,83.8,71.0,55.4,35.8,26.9,13.5,40,22,8,30.01,29.88,25,3,25,0.00
2013-5-21,90.0,73.5,52.3,36.8,27.9,17.1,48,22,7,30.02,29.83,25,2,25,0.00
2013-5-22,89.6,75.2,53.9,32.2,25.5,20.1,37,18,8,29.87,29.73,30,3,30,0.00
2013-5-23,87.8,76.5,62.2,33.7,25.4,16.2,32,16,7,29.91,29.79,27,4,29,0.00
2013-5-24,88.3,73.0,53.7,36.7,25.2,14.4,40,20,7,30.00,29.89,24,3,29,0.00
2013-5-25,87.7,66.9,52.0,32.6,25.5,13.6,41,25,6,30.01,29.93,21,2,29,0.00
2013-5-28,86.0,76.2,53.4,37.8,33.4,29.7,44,22,13,29.79,29.66,23,4,23,0.00
2013-5-29,90.6,75.7,55.6,41.4,34.3,26.0,53,26,10,29.82,29.69,26,3,27,0.00
2013-5-30,91.2,77.0,58.9,45.7,39.0,33.7,43,27,14,29.92,29.79,31,3,31,0.00
2013-5-31,97.8,81.0,60.9,48.3,41.5,27.1,54,28,8,29.99,29.85,19,1,31,0.00
2013-6-1,86.3,74.0,66.8,43.4,27.9,16.1,34,20,8,30.00,29.93,8,0,31,0.00
2013-6-2,96.9,86.9,77.4,36.1,30.0,22.3,22,14,7,29.82,29.77,18,4,19,0.00
2013-6-3,96.3,81.9,62.4,41.2,28.9,19.5,40,18,7,29.91,29.80,20,2,21,0.00
2013-6-4,95.8,79.5,59.5,36.1,26.4,17.2,38,17,6,29.95,29.85,26,2,26,0.00
2013-6-5,100.3,83.7,61.2,34.0,26.1,20.5,32,14,6,29.97,29.82,20,1,20,0.00
2013-6-6,103.5,86.6,63.5,35.8,26.2,19.5,35,14,5,29.93,29.78,14,1,20,0.00
2013-6-7,104.5,87.0,65.2,33.5,25.2,15.6,29,13,5,29.90,29.75,14,0,20,0.00
2013-6-8,104.5,87.5,66.3,33.5,25.7,20.4,26,12,6,29.95,29.80,29,4,32,0.00
2013-6-9,104.6,87.1,65.7,37.4,27.7,18.3,32,14,6,30.00,29.85,20,2,32,0.00
2013-6-10,100.5,85.3,64.9,33.2,21.6,13.0,29,11,5,29.99,29.87,26,2,32,0.00
2013-6-11,102.3,84.8,63.4,33.9,24.3,18.1,27,12,6,30.01,29.91,19,2,32,0.00
2013-6-12,103.8,87.2,65.6,37.7,27.5,21.7,30,14,6,30.05,29.94,21,2,32,0.00
2013-6-13,100.4,85.6,66.9,41.6,33.9,24.6,33,17,7,30.04,29.90,24,3,32,0.00
2013-6-14,100.0,85.3,67.7,41.9,34.2,24.1,33,18,7,29.99,29.84,24,3,32,0.00
2013-6-15,97.3,83.0,65.6,41.9,35.2,28.6,39,20,9,29.98,29.88,21,3,32,0.00
2013-6-16,98.8,83.8,65.4,43.2,30.6,19.7,34,17,7,30.04,29.95,24,2,25,0.00
2013-6-17,98.0,83.1,63.1,34.7,24.5,13.3,32,14,6,30.03,29.90,25,2,28,0.00
2013-6-18,98.0,80.8,61.1,26.5,18.9,11.1,21,11,6,29.97,29.82,25,2,25,0.00
2013-6-19,96.1,80.3,58.8,30.8,20.7,15.4,28,13,6,29.85,29.78,25,3,27,0.00
2013-6-20,95.5,79.9,59.1,32.3,24.3,16.1,30,15,6,29.90,29.82,22,3,27,0.00
2013-6-21,95.7,81.2,60.8,39.1,24.9,16.5,37,16,6,29.94,29.84,26,2,27,0.00
2013-6-22,96.0,79.8,60.1,33.1,26.7,19.8,33,16,7,29.92,29.80,21,2,27,0.00
2013-6-23,94.8,80.2,60.5,33.3,23.7,15.0,34,15,6,29.88,29.75,23,3,27,0.00
2013-6-24,91.5,80.9,71.1,34.2,27.7,18.7,24,15,7,29.92,29.77,25,4,27,0.00
2013-6-25,96.8,80.6,58.9,37.7,30.4,21.1,41,19,7,30.03,29.92,24,3,27,0.00
2013-6-26,100.1,83.6,63.4,38.4,29.0,19.3,33,16,6,30.10,30.00,17,2,27,0.00
2013-6-27,105.8,82.3,65.6,39.2,34.7,19.1,35,21,5,30.16,30.01,10,0,27,0.00
2013-6-28,112.6,94.1,79.3,45.4,34.8,26.9,30,13,5,30.01,29.93,20,1,27,0.00
2013-6-29,108.5,91.5,73.8,45.5,36.5,26.4,32,17,6,30.03,29.87,22,2,22,0.00
2013-6-30,107.5,89.7,75.4,47.9,39.5,26.2,36,19,6,29.99,29.84,30,2,30,0.00
2013-7-1,108.1,90.9,79.9,56.4,48.0,0.0,42,26,7,30.05,29.88,26,2,28,0.00
2013-7-2,149.5,85.3,73.1,99.9,56.4,0.0,83,42,18,30.13,0.00,35,2,35,0.01
2013-7-3,95.8,80.5,68.6,63.1,58.5,52.0,80,51,27,29.94,29.74,14,1,17,0.00
2013-7-4,102.4,87.0,70.3,60.4,51.5,42.6,64,35,13,29.82,29.67,19,1,19,0.00
2013-7-5,93.0,85.4,78.1,60.0,54.8,51.1,50,36,24,29.87,29.74,17,1,17,0.00
2013-7-6,98.0,82.7,72.7,61.9,56.0,50.6,55,42,22,29.84,29.74,18,1,26,0.00
2013-7-7,98.0,79.2,68.4,59.7,56.6,51.9,68,49,22,29.87,29.79,11,0,11,0.00
2013-7-14,99.3,89.7,80.2,61.2,54.9,46.6,49,32,17,29.95,29.82,22,3,23,0.06
2013-7-15,93.0,81.9,72.4,60.5,58.1,53.5,62,46,27,29.89,29.77,14,1,15,0.00
2013-7-16,88.5,76.2,67.9,68.5,63.1,59.5,99,67,40,30.03,29.86,20,1,21,0.00
2013-7-17,92.1,74.9,65.3,69.4,65.7,57.8,100,76,33,30.08,29.97,24,0,25,0.00
2013-7-18,95.8,80.0,68.4,68.8,63.1,57.0,95,60,28,30.04,29.87,18,1,19,0.00
2013-7-19,97.7,80.7,71.0,68.7,62.7,55.3,86,58,25,29.97,29.81,18,1,18,0.01
2013-7-20,97.7,78.1,68.4,69.5,64.7,53.7,95,69,24,29.92,29.76,15,1,16,0.03
2013-7-21,87.8,75.5,69.8,68.5,65.8,61.8,94,73,44,29.94,29.82,18,1,18,0.00
2013-7-22,90.1,77.5,68.6,67.3,64.4,60.2,93,66,38,29.99,29.90,14,1,15,0.00
2013-7-23,94.0,79.8,68.4,70.2,64.1,58.5,90,62,31,30.00,29.87,15,1,15,0.02
2013-7-24,99.2,82.6,69.1,64.7,61.9,55.5,84,53,24,29.95,29.82,19,1,21,0.00
2013-7-25,94.3,81.3,74.1,65.2,63.1,61.2,67,55,34,30.02,29.87,16,1,16,0.00
2013-7-26,89.5,77.6,70.1,67.5,64.1,60.7,81,65,40,30.12,29.99,22,1,26,0.03
2013-7-27,85.8,74.9,67.9,71.5,65.2,61.1,93,73,45,30.07,29.87,15,1,17,0.08
2013-7-28,88.1,74.6,65.0,71.4,64.5,57.7,96,73,36,29.91,29.77,20,1,21,0.04
2013-7-29,95.3,80.1,64.1,65.1,56.3,44.7,91,51,19,30.01,29.86,18,2,21,0.00
2013-7-30,98.3,82.3,67.9,57.0,52.3,44.6,62,39,17,30.12,30.00,16,1,18,0.00
2013-7-31,100.8,82.8,69.3,63.5,54.6,43.5,65,41,15,30.08,29.92,30,1,30,0.10
2013-8-1,91.2,80.8,70.7,65.2,61.4,56.2,80,54,31,30.00,29.86,15,1,15,0.00
2013-8-2,97.8,84.1,69.7,62.8,55.6,43.0,73,42,16,29.95,29.85,19,2,22,0.00
2013-8-3,98.0,84.0,69.3,61.4,54.2,42.8,70,40,16,30.00,29.88,19,1,20,0.00
2013-8-4,98.0,84.7,73.5,57.8,52.4,43.4,55,35,18,30.00,29.89,19,1,19,0.00
2013-8-5,96.7,81.6,68.4,56.1,51.5,43.0,59,38,16,29.99,29.85,15,1,17,0.00
2013-8-6,79.8,73.0,68.0,66.7,61.5,54.1,94,69,44,30.02,29.89,11,0,12,0.08
2013-8-7,92.3,77.6,65.2,66.8,58.5,45.5,95,58,26,30.01,29.85,15,1,15,0.01
2013-8-8,96.2,81.4,63.9,53.8,41.6,26.1,62,30,8,29.93,29.80,15,2,18,0.00
2013-8-9,97.7,80.7,61.9,46.1,37.3,25.6,50,25,8,29.90,29.83,20,2,24,0.00
2013-8-10,93.1,75.6,64.8,48.3,40.8,27.2,49,32,10,29.98,29.89,19,1,19,0.00
2013-8-11,97.7,89.9,76.9,52.3,45.9,40.0,39,23,15,29.95,29.82,18,2,18,0.00
2013-8-12,99.0,83.1,67.3,55.1,46.9,34.0,58,32,11,29.95,29.82,19,1,19,0.00
2013-8-13,99.8,83.6,66.0,46.8,38.0,25.5,45,24,8,29.98,29.86,17,1,17,0.00
2013-8-14,100.1,81.3,66.3,46.9,41.0,32.3,42,26,10,29.96,29.83,13,0,14,0.00
2013-8-15,98.0,83.8,71.6,64.6,51.8,45.4,69,35,17,30.00,29.89,17,1,17,0.02
2013-8-16,100.3,86.1,73.2,54.3,49.9,41.7,49,31,14,29.99,29.88,18,1,18,0.00
2013-8-17,98.8,81.2,69.9,62.4,55.5,47.2,74,44,18,30.08,29.88,22,1,22,0.02
2013-8-18,99.2,79.4,66.8,63.2,57.9,46.6,82,52,18,30.01,29.89,25,1,29,0.02
2013-8-19,98.8,81.2,69.5,60.8,55.7,46.4,67,45,17,30.00,29.87,23,2,23,0.01
2013-8-20,99.4,83.0,65.0,62.8,52.8,44.4,73,41,16,29.95,29.80,24,1,24,0.08
2013-8-21,83.0,77.5,71.7,64.1,61.2,55.5,72,57,45,30.01,29.87,17,1,20,0.01
2013-8-22,95.0,79.0,67.7,66.3,58.8,50.6,92,55,22,29.99,29.82,13,1,14,0.21
2013-8-23,93.2,78.3,65.1,65.2,59.4,51.5,93,57,28,29.94,29.78,15,0,15,0.00
2013-8-24,85.1,73.8,67.7,66.6,60.0,52.8,95,64,34,30.02,29.85,13,1,16,0.07
2013-8-25,72.7,69.6,66.2,68.9,65.6,59.1,100,88,64,30.05,29.93,9,0,9,1.08
2013-8-26,87.1,74.5,66.2,69.1,66.1,63.7,100,77,48,30.04,29.88,15,1,16,0.13
2013-8-27,94.0,77.9,68.7,68.6,62.8,53.2,91,64,26,29.97,29.82,17,1,18,0.22
2013-8-28,93.7,79.7,65.9,65.7,61.1,53.7,91,58,27,29.98,29.85,16,1,17,0.00
2013-8-29,91.8,78.9,68.3,68.8,62.9,61.0,98,60,37,30.13,29.95,14,1,15,0.14
2013-8-30,89.0,73.3,66.8,68.7,66.8,62.9,99,83,45,30.14,29.98,13,0,13,0.02
2013-8-31,82.7,71.6,67.9,71.2,68.2,66.4,100,90,60,30.03,29.92,12,0,15,0.07
2013-9-1,91.8,75.8,65.1,69.1,65.2,61.7,100,73,38,29.97,29.86,18,1,19,0.00
2013-9-2,94.2,78.7,66.5,65.7,62.5,57.5,91,61,32,29.99,29.86,30,1,30,0.00
2013-9-3,98.3,80.5,66.9,65.8,59.9,52.4,92,55,22,29.98,29.86,14,1,14,0.00
2013-9-4,98.0,82.2,70.8,63.9,58.6,49.1,76,49,21,30.02,29.88,20,1,20,0.00
2013-9-5,97.3,81.6,67.8,62.0,55.0,42.0,79,46,15,30.02,29.89,12,0,12,0.00
2013-9-6,98.2,83.0,70.5,60.5,54.2,44.0,61,41,17,30.00,29.82,23,1,24,0.00
2013-9-7,87.8,78.1,68.4,66.0,60.3,55.8,81,56,36,29.99,29.86,10,0,11,0.00
2013-9-8,78.7,70.2,65.9,67.4,64.6,62.3,99,83,59,29.95,29.81,9,0,9,0.71
2013-9-9,69.0,66.2,62.6,68.0,65.5,62.0,100,98,88,29.86,29.73,7,0,7,0.00
2013-9-10,72.7,65.5,62.2,66.8,64.3,62.1,100,96,75,29.89,29.77,11,0,13,0.04
2013-9-11,80.5,67.4,60.8,66.7,61.7,55.4,100,84,48,29.98,29.88,16,1,19,0.06
2013-9-12,90.5,71.8,56.9,59.6,54.3,40.8,99,62,18,29.94,29.79,8,0,8,0.03
2013-9-13,91.3,75.1,61.7,59.5,56.0,50.2,85,55,27,29.82,29.69,9,0,10,0.03
2013-9-14,90.7,74.8,62.5,61.4,57.2,49.1,82,57,32,29.78,29.66,19,1,19,0.00
2013-9-15,92.6,75.5,61.1,58.2,55.3,45.2,84,54,20,29.86,29.76,11,0,12,0.00
2013-9-16,94.0,77.8,62.6,58.2,54.7,48.1,77,49,22,29.90,29.76,8,0,9,0.00
2013-9-17,93.8,78.2,65.2,60.9,57.0,49.1,78,52,23,29.85,29.67,17,1,17,0.00
2013-9-18,91.8,76.2,63.5,59.8,46.2,29.9,74,42,12,29.76,29.66,21,2,21,0.00
2013-9-19,92.1,73.7,57.1,47.7,43.3,33.9,65,38,14,29.79,29.71,12,1,12,0.00
2013-9-20,93.5,74.0,58.4,51.0,46.2,39.6,61,41,16,29.84,29.75,17,1,17,0.00
2013-9-21,90.1,75.5,60.6,56.2,52.1,49.9,70,47,26,29.85,29.65,20,2,20,0.00
2013-9-22,81.5,72.4,57.8,53.0,37.9,15.0,58,33,8,29.76,29.56,29,4,29,0.00
2013-9-23,87.9,67.5,49.4,42.7,37.2,25.7,62,37,11,29.90,29.75,8,0,8,0.00
2013-9-24,88.3,70.8,54.7,41.5,37.1,21.9,55,33,9,29.97,29.76,17,1,17,0.00
2013-9-25,84.5,68.0,51.5,49.6,40.5,36.9,66,40,19,29.76,29.58,24,3,24,0.00
2013-9-26,80.8,70.6,61.2,47.3,40.4,29.8,52,35,24,29.69,29.56,35,5,35,0.00
2013-9-27,76.8,64.7,52.7,32.1,26.9,18.7,38,25,12,29.95,29.69,15,2,16,0.00
2013-9-28,81.6,62.1,49.2,33.2,27.8,16.8,47,31,9,30.06,29.93,8,0,8,0.00
2013-9-29,86.0,65.3,47.4,40.7,34.3,29.2,55,34,17,30.08,29.92,10,0,12,0.00
2013-9-30,87.0,68.0,50.8,39.1,35.5,31.2,55,33,15,29.97,29.82,10,0,10,0.00
2013-10-1,86.5,67.7,51.5,39.1,35.1,30.9,53,33,14,29.94,29.82,18,1,19,0.00
2013-10-2,83.3,67.1,49.5,42.4,38.8,36.3,63,38,20,29.92,29.78,24,2,24,0.00
2013-10-3,81.3,65.7,49.9,45.5,38.9,33.3,68,41,19,29.82,29.65,26,2,28,0.00
2013-10-4,76.9,62.2,48.2,38.2,26.0,10.4,48,28,9,30.07,29.74,22,1,23,0.00
2013-10-5,75.0,60.2,47.5,30.5,25.8,21.9,41,28,16,30.18,30.03,20,2,24,0.00
2013-10-6,84.5,61.6,42.8,30.0,25.0,17.9,50,29,9,30.16,29.99,11,0,11,0.00
2013-10-7,83.8,64.2,47.0,32.6,27.6,23.1,46,28,11,30.03,29.86,9,0,9,0.00
2013-10-8,81.4,64.1,47.2,36.0,31.9,27.7,55,33,14,29.86,29.67,24,2,26,0.00
2013-10-9,74.8,62.5,47.8,46.8,39.1,31.5,61,44,24,29.68,29.56,29,6,30,0.00
2013-10-10,60.7,53.3,42.9,46.7,41.0,36.0,92,65,41,29.90,29.56,23,2,24,0.04
2013-10-11,73.8,53.8,38.1,41.8,38.6,34.1,96,62,24,29.95,29.82,7,0,8,0.00
2013-10-12,77.9,58.8,43.0,40.7,38.4,36.5,82,51,23,29.92,29.78,14,0,14,0.00
2013-10-13,74.6,58.4,42.2,42.5,37.2,33.5,80,49,25,29.90,29.77,22,2,24,0.00
2013-10-14,75.8,58.5,46.9,38.0,32.8,24.5,63,41,15,29.99,29.86,11,0,11,0.00
2013-10-15,75.3,57.1,40.9,35.9,30.7,24.5,66,40,18,29.91,29.76,11,0,11,0.00
2013-10-16,74.3,57.8,42.2,35.0,30.6,24.0,66,38,16,30.02,29.91,8,0,8,0.00
2013-10-17,77.0,57.1,39.5,32.3,29.6,23.9,63,39,15,30.01,29.81,13,0,13,0.00
2013-10-18,79.1,58.2,40.0,31.8,27.0,21.8,61,35,12,30.00,29.88,9,0,9,0.00
2013-10-19,81.7,60.2,43.5,28.4,24.4,16.5,48,29,9,30.03,29.87,8,0,9,0.00
2013-10-20,80.3,59.9,39.9,27.9,25.4,21.7,52,30,11,29.93,29.74,18,0,18,0.00
2013-10-21,81.3,60.6,42.8,30.5,26.2,21.8,49,30,11,30.00,29.87,8,0,8,0.00
2013-10-22,81.8,61.1,44.0,31.3,27.4,16.8,54,31,9,30.05,29.90,9,0,10,0.00
2013-10-23,84.1,63.1,44.6,34.3,28.9,21.7,55,31,10,29.97,29.82,8,0,9,0.00
2013-10-24,82.8,65.2,53.4,35.5,30.6,24.8,50,29,13,29.95,29.82,14,0,14,0.00
2013-10-25,81.5,62.9,47.4,39.4,30.9,20.5,52,32,11,30.05,29.94,10,0,10,0.00
2013-10-26,81.5,63.3,49.9,40.1,36.5,30.1,61,40,16,30.13,29.98,12,0,12,0.00
2013-10-27,81.3,63.7,49.4,40.5,35.0,24.8,61,38,13,30.01,29.68,20,1,20,0.00
2013-10-28,71.3,62.6,52.0,45.9,36.2,32.7,55,38,28,29.72,29.64,32,6,35,0.00
2013-10-29,62.1,59.0,52.2,47.8,44.0,39.3,62,58,54,29.78,29.66,33,8,33,0.00
2013-10-30,64.5,49.6,41.1,38.0,31.0,28.4,79,50,26,29.94,29.80,8,1,18,0.00
2013-10-31,69.8,50.8,34.9,35.1,30.6,27.1,74,48,24,30.04,29.90,8,0,8,0.00
2013-11-1,76.3,55.1,37.5,33.8,29.8,27.1,68,42,18,30.10,29.96,8,0,9,0.00
2013-11-2,78.5,57.5,40.0,32.7,26.3,19.1,59,35,11,30.05,29.79,13,1,14,0.00
2013-11-3,74.1,57.9,43.0,36.8,30.6,25.3,51,37,23,29.80,29.65,25,2,25,0.00
2013-11-4,70.2,54.7,38.4,41.6,32.9,27.6,68,45,29,29.75,29.62,20,1,20,0.00
2013-11-5,66.8,52.2,41.2,41.3,31.9,20.1,73,48,24,30.13,29.74,8,0,9,0.00
2013-11-6,73.0,50.7,31.2,20.6,14.9,8.6,53,28,9,30.23,30.10,8,0,8,0.00
2013-11-7,74.4,54.7,41.2,20.4,16.6,10.3,35,24,10,30.20,29.99,8,0,8,0.00
2013-11-8,73.9,53.7,36.9,32.1,25.4,18.5,50,35,18,30.05,29.88,7,0,8,0.00
2013-11-9,76.5,56.6,40.5,34.2,31.3,28.0,61,40,19,30.06,29.95,8,0,8,0.00
2013-11-10,75.4,56.0,43.3,37.4,33.4,30.0,60,45,22,30.12,30.00,8,0,8,0.00
2013-11-11,81.5,59.8,45.6,35.7,30.8,24.9,60,38,13,30.13,29.99,13,0,14,0.00
2013-11-12,82.4,62.7,47.7,30.5,26.5,22.0,44,28,11,30.22,30.08,7,0,7,0.00
2013-11-13,76.7,60.1,47.2,42.2,36.9,28.3,61,43,26,30.17,29.93,7,0,7,0.00
2013-11-14,76.3,58.8,45.4,41.1,36.8,28.3,70,48,17,29.99,29.74,14,0,14,0.00
2013-11-15,70.5,55.7,45.5,49.0,41.2,35.7,92,60,38,29.74,29.48,25,3,25,0.28
2013-11-16,61.9,52.5,44.9,51.4,45.8,42.6,100,80,55,29.79,29.59,23,3,25,0.01
2013-11-17,65.4,51.3,42.1,47.2,43.6,41.3,100,77,46,30.00,29.79,8,0,11,0.00
2013-11-18,71.5,52.6,39.1,45.3,41.7,37.5,95,70,38,30.07,29.90,9,0,9,0.00
2013-11-19,69.5,53.0,40.4,46.6,42.7,38.5,94,70,42,29.95,29.74,15,1,16,0.01
2013-11-20,56.8,51.8,47.7,50.8,46.8,42.1,94,83,68,29.80,29.71,10,0,11,0.00
2013-11-21,57.4,52.2,47.9,51.4,48.9,46.6,100,89,73,29.87,29.75,9,0,12,0.20
2013-11-22,48.9,47.4,45.9,48.8,47.4,45.8,100,100,96,29.85,29.74,10,0,10,1.19
2013-11-23,47.9,45.2,41.5,47.4,43.8,40.7,100,95,81,29.98,29.83,9,0,12,0.80
2013-11-24,50.9,42.4,36.2,43.7,41.0,36.1,100,95,75,30.05,29.94,7,0,8,0.06
2013-11-25,61.6,43.5,32.7,43.7,38.4,32.6,100,84,48,30.14,29.99,7,0,7,0.00
2013-11-26,65.3,46.6,32.8,39.3,35.9,32.1,98,71,33,30.20,30.07,10,0,10,0.00
2013-11-27,59.4,46.9,38.2,37.1,35.2,32.7,91,66,37,30.15,29.90,9,0,10,0.00
2013-12-3,53.4,49.9,47.1,36.6,34.6,33.6,61,56,47,29.57,29.52,9,0,9,0.00
2013-12-4,54.9,44.8,32.5,45.0,36.9,29.4,95,75,53,29.76,29.43,26,5,26,0.09
2013-12-5,46.9,34.5,25.9,30.2,24.4,20.3,91,69,41,29.89,29.72,9,1,12,0.00
2013-12-6,45.2,31.2,21.0,22.7,20.0,17.0,85,65,38,30.02,29.88,7,0,8,0.00
2013-12-7,43.7,33.4,20.4,36.3,26.2,18.4,93,76,55,29.91,29.69,23,3,23,0.00
2013-12-8,47.1,39.0,29.7,38.6,32.1,24.2,100,78,56,29.89,29.73,17,1,20,0.10
2013-12-9,43.4,32.2,25.6,24.5,14.8,11.0,81,50,30,30.30,29.89,14,2,14,0.00
2013-12-10,50.5,32.3,19.8,20.6,15.2,10.9,68,51,25,30.27,30.02,9,1,9,0.00
2013-12-11,58.2,38.4,24.3,25.2,19.4,15.0,68,49,22,30.18,30.05,10,1,10,0.00
2013-12-12,62.5,44.4,32.0,35.0,28.4,20.9,71,55,34,30.16,29.92,9,1,9,0.00
2013-12-13,58.4,44.0,33.6,37.7,33.5,29.1,87,68,46,30.04,29.89,8,0,8,0.00
2013-12-14,59.4,42.8,32.8,30.2,25.6,22.6,80,54,25,30.24,30.03,12,1,13,0.00
2013-12-15,69.3,45.2,29.7,30.5,25.9,21.9,73,50,21,30.25,30.10,8,1,8,0.00
2013-12-16,72.0,50.9,34.1,32.2,28.4,25.1,70,45,19,30.18,30.06,9,0,10,0.00
2013-12-17,72.8,52.0,38.7,33.2,29.2,25.1,63,44,17,30.21,30.03,9,1,9,0.00
2013-12-18,63.2,48.7,39.2,33.7,31.4,28.9,68,52,29,30.05,29.69,7,0,7,0.00
2013-12-19,60.5,47.4,38.3,43.2,34.8,30.4,100,64,36,29.70,29.52,22,3,24,0.40
2013-12-20,45.7,41.1,37.0,43.4,40.5,37.0,100,98,91,29.64,29.53,9,0,9,0.63
2013-12-21,45.4,38.5,34.4,40.8,37.3,34.4,100,96,79,29.87,29.60,8,0,9,0.10
2013-12-22,53.2,38.1,31.0,40.2,33.8,31.0,100,87,46,30.17,29.87,7,0,7,0.00
2013-12-23,60.2,41.3,27.7,35.3,30.9,26.9,97,71,34,30.28,30.15,7,0,7,0.00
2013-12-24,59.9,44.1,32.9,35.6,31.6,27.9,82,64,36,30.20,30.00,10,1,10,0.00
2013-12-25,63.0,46.4,34.6,33.3,24.5,15.5,74,47,16,30.21,30.09,13,1,13,0.00
2013-12-26,63.5,43.3,30.2,29.6,23.7,20.6,69,49,22,30.18,30.05,6,1,9,0.00
2013-12-27,68.8,46.3,32.5,30.2,25.6,21.3,67,47,20,30.19,29.99,7,0,7,0.00
2013-12-28,55.0,41.8,30.6,32.3,28.8,25.8,83,62,35,30.06,29.83,9,0,9,0.00
2013-12-29,58.2,42.8,31.4,31.4,26.3,19.8,84,56,28,30.09,29.84,14,1,14,0.00
2013-12-30,33.3,32.8,32.4,20.8,20.4,19.7,61,60,59,30.08,30.07,0,0,14,0.00
2014-1-1,65.3,52.1,35.2,31.7,29.2,25.4,68,42,28,30.09,29.96,8,0,8,0.00
2014-1-2,63.9,47.0,34.7,29.0,25.0,21.2,60,45,21,30.13,29.97,8,1,8,0.00